sensor_id;sensor_type;location;lat;lon;timestamp;pressure;altitude;pressure_sealevel;temperature;humidity
35892;BME280;21993;42.672;23.296;2023-01-16T00:00:28;94632.47;;;4.48;71.12
35892;BME280;21993;42.672;23.296;2023-01-16T00:02:53;94633.81;;;4.53;71.63
35892;BME280;21993;42.672;23.296;2023-01-16T00:05:19;94635.25;;;4.45;72.02
35892;BME280;21993;42.672;23.296;2023-01-16T00:07:44;94632.59;;;4.46;71.58
35892;BME280;21993;42.672;23.296;2023-01-16T00:10:09;94629.22;;;4.44;71.78
35892;BME280;21993;42.672;23.296;2023-01-16T00:12:35;94629.22;;;4.32;72.40
35892;BME280;21993;42.672;23.296;2023-01-16T00:15:00;94630.06;;;4.45;72.05
35892;BME280;21993;42.672;23.296;2023-01-16T00:17:26;94632.06;;;4.54;71.38
35892;BME280;21993;42.672;23.296;2023-01-16T00:19:51;94631.22;;;4.53;71.63
35892;BME280;21993;42.672;23.296;2023-01-16T00:22:17;94629.22;;;4.44;73.00
35892;BME280;21993;42.672;23.296;2023-01-16T00:24:42;94625.63;;;4.47;73.03
35892;BME280;21993;42.672;23.296;2023-01-16T00:27:08;94615.63;;;4.41;73.43
35892;BME280;21993;42.672;23.296;2023-01-16T00:29:33;94613.63;;;4.32;73.33
35892;BME280;21993;42.672;23.296;2023-01-16T00:31:59;94605.31;;;4.39;73.61
35892;BME280;21993;42.672;23.296;2023-01-16T00:34:25;94608.94;;;4.37;73.04
35892;BME280;21993;42.672;23.296;2023-01-16T00:36:50;94608.31;;;4.33;73.23
35892;BME280;21993;42.672;23.296;2023-01-16T00:39:16;94604.19;;;4.43;73.39
35892;BME280;21993;42.672;23.296;2023-01-16T00:41:41;94604.38;;;4.40;73.44
35892;BME280;21993;42.672;23.296;2023-01-16T00:44:06;94596.81;;;4.37;73.68
35892;BME280;21993;42.672;23.296;2023-01-16T00:46:32;94592.84;;;4.32;72.94
35892;BME280;21993;42.672;23.296;2023-01-16T00:48:57;94600.97;;;4.40;73.07
35892;BME280;21993;42.672;23.296;2023-01-16T00:51:23;94590.25;;;4.44;72.61
35892;BME280;21993;42.672;23.296;2023-01-16T00:53:49;94598.38;;;4.40;72.86
35892;BME280;21993;42.672;23.296;2023-01-16T00:56:14;94597.44;;;4.41;72.97
35892;BME280;21993;42.672;23.296;2023-01-16T00:58:39;94601.47;;;4.32;73.14
35892;BME280;21993;42.672;23.296;2023-01-16T01:01:05;94595.53;;;4.30;72.92
35892;BME280;21993;42.672;23.296;2023-01-16T01:03:31;94585.88;;;4.32;72.73
35892;BME280;21993;42.672;23.296;2023-01-16T01:05:56;94585.44;;;4.26;73.48
35892;BME280;21993;42.672;23.296;2023-01-16T01:08:22;94591.94;;;4.06;74.13
35892;BME280;21993;42.672;23.296;2023-01-16T01:10:47;94594.88;;;4.14;74.93
35892;BME280;21993;42.672;23.296;2023-01-16T01:13:13;94591.97;;;4.18;74.25
35892;BME280;21993;42.672;23.296;2023-01-16T01:15:39;94600.31;;;4.23;74.51
35892;BME280;21993;42.672;23.296;2023-01-16T01:18:04;94590.94;;;4.21;73.64
35892;BME280;21993;42.672;23.296;2023-01-16T01:20:30;94591.19;;;4.31;73.63
35892;BME280;21993;42.672;23.296;2023-01-16T01:22:56;94585.22;;;4.29;73.13
35892;BME280;21993;42.672;23.296;2023-01-16T01:25:21;94581.78;;;4.15;73.84
35892;BME280;21993;42.672;23.296;2023-01-16T01:27:47;94574.94;;;4.14;73.26
35892;BME280;21993;42.672;23.296;2023-01-16T01:30:12;94577.13;;;3.93;73.98
35892;BME280;21993;42.672;23.296;2023-01-16T01:32:38;94575.59;;;3.91;74.38
35892;BME280;21993;42.672;23.296;2023-01-16T01:35:05;94565.00;;;3.94;74.06
35892;BME280;21993;42.672;23.296;2023-01-16T01:37:31;94574.38;;;3.97;73.95
35892;BME280;21993;42.672;23.296;2023-01-16T01:39:56;94561.38;;;3.97;74.02
35892;BME280;21993;42.672;23.296;2023-01-16T01:42:22;94558.94;;;3.81;73.14
35892;BME280;21993;42.672;23.296;2023-01-16T01:45:15;94549.91;;;3.59;73.27
35892;BME280;21993;42.672;23.296;2023-01-16T01:47:47;94554.50;;;3.56;73.68
35892;BME280;21993;42.672;23.296;2023-01-16T01:50:22;94560.88;;;3.50;74.70
35892;BME280;21993;42.672;23.296;2023-01-16T01:52:50;94560.50;;;3.56;74.33
35892;BME280;21993;42.672;23.296;2023-01-16T01:55:17;94557.09;;;3.56;75.78
35892;BME280;21993;42.672;23.296;2023-01-16T01:57:49;94553.84;;;3.52;75.78
35892;BME280;21993;42.672;23.296;2023-01-16T02:00:20;94555.13;;;3.59;75.32
35892;BME280;21993;42.672;23.296;2023-01-16T02:02:57;94551.91;;;3.56;76.39
35892;BME280;21993;42.672;23.296;2023-01-16T02:05:29;94546.22;;;3.63;75.90
35892;BME280;21993;42.672;23.296;2023-01-16T02:07:56;94544.44;;;3.64;76.04
35892;BME280;21993;42.672;23.296;2023-01-16T02:10:34;94548.25;;;3.58;77.23
35892;BME280;21993;42.672;23.296;2023-01-16T02:13:02;94548.06;;;3.61;77.13
35892;BME280;21993;42.672;23.296;2023-01-16T02:15:28;94545.16;;;3.53;77.41
35892;BME280;21993;42.672;23.296;2023-01-16T02:17:54;94544.84;;;3.58;76.67
35892;BME280;21993;42.672;23.296;2023-01-16T02:20:57;94547.22;;;3.61;75.99
35892;BME280;21993;42.672;23.296;2023-01-16T02:26:23;94533.56;;;3.45;76.84
35892;BME280;21993;42.672;23.296;2023-01-16T02:34:33;94516.41;;;3.69;78.16
35892;BME280;21993;42.672;23.296;2023-01-16T02:42:43;94513.66;;;3.85;77.00
35892;BME280;21993;42.672;23.296;2023-01-16T02:45:28;94505.59;;;3.89;77.35
35892;BME280;21993;42.672;23.296;2023-01-16T02:53:54;94508.56;;;3.83;77.31
35892;BME280;21993;42.672;23.296;2023-01-16T02:56:19;94498.41;;;3.93;77.26
35892;BME280;21993;42.672;23.296;2023-01-16T02:58:48;94497.69;;;3.51;78.65
35892;BME280;21993;42.672;23.296;2023-01-16T03:01:17;94503.81;;;3.50;79.24
35892;BME280;21993;42.672;23.296;2023-01-16T03:03:50;94493.31;;;3.52;79.40
35892;BME280;21993;42.672;23.296;2023-01-16T03:09:06;94499.88;;;3.57;78.88
35892;BME280;21993;42.672;23.296;2023-01-16T03:14:58;94491.56;;;3.79;78.66
35892;BME280;21993;42.672;23.296;2023-01-16T03:17:39;94483.66;;;3.81;78.36
35892;BME280;21993;42.672;23.296;2023-01-16T03:20:31;94484.66;;;3.78;77.98
35892;BME280;21993;42.672;23.296;2023-01-16T03:25:57;94475.34;;;3.76;78.07
35892;BME280;21993;42.672;23.296;2023-01-16T03:31:00;94464.22;;;3.74;78.36
35892;BME280;21993;42.672;23.296;2023-01-16T03:36:34;94463.84;;;3.80;77.97
35892;BME280;21993;42.672;23.296;2023-01-16T03:39:06;94455.81;;;3.83;77.77
35892;BME280;21993;42.672;23.296;2023-01-16T03:41:34;94451.25;;;3.74;78.21
35892;BME280;21993;42.672;23.296;2023-01-16T03:44:11;94452.81;;;3.76;78.07
35892;BME280;21993;42.672;23.296;2023-01-16T03:46:47;94446.44;;;3.67;78.85
35892;BME280;21993;42.672;23.296;2023-01-16T03:49:17;94441.81;;;3.73;78.61
35892;BME280;21993;42.672;23.296;2023-01-16T03:51:47;94443.69;;;3.71;78.98
35892;BME280;21993;42.672;23.296;2023-01-16T03:56:50;94434.63;;;3.63;79.72
35892;BME280;21993;42.672;23.296;2023-01-16T03:59:17;94427.78;;;3.62;79.22
35892;BME280;21993;42.672;23.296;2023-01-16T04:02:00;94427.56;;;3.65;79.49
35892;BME280;21993;42.672;23.296;2023-01-16T04:04:51;94432.13;;;3.75;79.12
35892;BME280;21993;42.672;23.296;2023-01-16T04:07:30;94434.81;;;3.60;79.11
35892;BME280;21993;42.672;23.296;2023-01-16T04:10:05;94430.06;;;3.67;78.82
35892;BME280;21993;42.672;23.296;2023-01-16T04:12:52;94430.47;;;3.74;78.43
35892;BME280;21993;42.672;23.296;2023-01-16T04:15:19;94425.69;;;3.67;78.85
35892;BME280;21993;42.672;23.296;2023-01-16T04:17:45;94424.88;;;3.80;78.36
35892;BME280;21993;42.672;23.296;2023-01-16T04:20:11;94422.50;;;3.89;78.62
35892;BME280;21993;42.672;23.296;2023-01-16T04:22:37;94429.34;;;3.90;78.40
35892;BME280;21993;42.672;23.296;2023-01-16T04:25:07;94431.84;;;3.92;77.72
35892;BME280;21993;42.672;23.296;2023-01-16T04:27:33;94419.19;;;3.87;78.34
35892;BME280;21993;42.672;23.296;2023-01-16T04:29:58;94419.50;;;3.95;76.99
35892;BME280;21993;42.672;23.296;2023-01-16T04:32:24;94420.97;;;3.87;77.42
35892;BME280;21993;42.672;23.296;2023-01-16T04:34:49;94413.47;;;3.82;77.84
35892;BME280;21993;42.672;23.296;2023-01-16T04:37:16;94414.06;;;3.86;78.27
35892;BME280;21993;42.672;23.296;2023-01-16T04:39:42;94408.28;;;3.82;77.51
35892;BME280;21993;42.672;23.296;2023-01-16T04:42:08;94404.13;;;3.80;77.86
35892;BME280;21993;42.672;23.296;2023-01-16T04:44:34;94402.47;;;3.91;77.41
35892;BME280;21993;42.672;23.296;2023-01-16T04:46:59;94412.22;;;3.88;77.62
35892;BME280;21993;42.672;23.296;2023-01-16T04:49:25;94410.34;;;3.64;78.02
35892;BME280;21993;42.672;23.296;2023-01-16T04:51:50;94404.81;;;3.69;77.91
35892;BME280;21993;42.672;23.296;2023-01-16T04:54:17;94401.31;;;3.70;78.70
35892;BME280;21993;42.672;23.296;2023-01-16T04:56:43;94398.72;;;3.70;78.72
35892;BME280;21993;42.672;23.296;2023-01-16T04:59:10;94406.19;;;3.75;78.75
35892;BME280;21993;42.672;23.296;2023-01-16T05:01:35;94402.97;;;3.84;77.56
35892;BME280;21993;42.672;23.296;2023-01-16T05:04:04;94397.28;;;3.79;77.94
35892;BME280;21993;42.672;23.296;2023-01-16T05:06:31;94401.94;;;3.99;77.80
35892;BME280;21993;42.672;23.296;2023-01-16T05:08:56;94398.94;;;4.05;76.80
35892;BME280;21993;42.672;23.296;2023-01-16T05:11:21;94399.13;;;4.02;76.81
35892;BME280;21993;42.672;23.296;2023-01-16T05:13:47;94402.47;;;4.04;76.99
35892;BME280;21993;42.672;23.296;2023-01-16T05:16:12;94398.72;;;4.08;77.26
35892;BME280;21993;42.672;23.296;2023-01-16T05:18:38;94395.72;;;4.14;76.72
35892;BME280;21993;42.672;23.296;2023-01-16T05:21:03;94381.69;;;4.04;76.91
35892;BME280;21993;42.672;23.296;2023-01-16T05:23:32;94391.34;;;3.89;77.37
35892;BME280;21993;42.672;23.296;2023-01-16T05:26:02;94380.97;;;3.89;76.99
35892;BME280;21993;42.672;23.296;2023-01-16T05:28:28;94386.78;;;3.93;77.30
35892;BME280;21993;42.672;23.296;2023-01-16T05:30:54;94391.25;;;3.91;76.28
35892;BME280;21993;42.672;23.296;2023-01-16T05:33:19;94379.81;;;3.81;76.95
35892;BME280;21993;42.672;23.296;2023-01-16T05:35:46;94374.53;;;3.82;77.46
35892;BME280;21993;42.672;23.296;2023-01-16T05:38:12;94366.00;;;3.80;77.31
35892;BME280;21993;42.672;23.296;2023-01-16T05:40:37;94360.09;;;3.91;76.67
35892;BME280;21993;42.672;23.296;2023-01-16T05:43:03;94353.34;;;3.88;76.22
35892;BME280;21993;42.672;23.296;2023-01-16T05:45:28;94368.00;;;3.89;76.41
35892;BME280;21993;42.672;23.296;2023-01-16T05:47:54;94371.31;;;3.91;76.83
35892;BME280;21993;42.672;23.296;2023-01-16T05:50:19;94374.13;;;3.88;76.96
35892;BME280;21993;42.672;23.296;2023-01-16T05:52:45;94368.41;;;3.96;76.83
35892;BME280;21993;42.672;23.296;2023-01-16T05:55:10;94364.34;;;4.05;76.34
35892;BME280;21993;42.672;23.296;2023-01-16T05:57:36;94357.69;;;4.01;76.46
35892;BME280;21993;42.672;23.296;2023-01-16T06:00:02;94358.22;;;4.06;75.77
35892;BME280;21993;42.672;23.296;2023-01-16T06:02:27;94365.78;;;4.09;75.73
35892;BME280;21993;42.672;23.296;2023-01-16T06:04:53;94355.28;;;4.10;76.25
35892;BME280;21993;42.672;23.296;2023-01-16T06:07:18;94352.50;;;4.13;75.73
35892;BME280;21993;42.672;23.296;2023-01-16T06:09:44;94358.19;;;4.18;75.45
35892;BME280;21993;42.672;23.296;2023-01-16T06:12:17;94353.84;;;4.06;76.23
35892;BME280;21993;42.672;23.296;2023-01-16T06:14:43;94347.38;;;4.12;75.64
35892;BME280;21993;42.672;23.296;2023-01-16T06:17:09;94343.25;;;4.09;75.76
35892;BME280;21993;42.672;23.296;2023-01-16T06:19:34;94342.00;;;4.02;76.15
35892;BME280;21993;42.672;23.296;2023-01-16T06:22:00;94337.25;;;3.96;76.88
35892;BME280;21993;42.672;23.296;2023-01-16T06:24:25;94345.84;;;4.09;76.39
35892;BME280;21993;42.672;23.296;2023-01-16T06:26:51;94348.66;;;4.06;76.33
35892;BME280;21993;42.672;23.296;2023-01-16T06:29:16;94358.53;;;3.88;76.85
35892;BME280;21993;42.672;23.296;2023-01-16T06:31:42;94357.19;;;3.95;76.85
35892;BME280;21993;42.672;23.296;2023-01-16T06:34:07;94361.31;;;4.11;76.41
35892;BME280;21993;42.672;23.296;2023-01-16T06:36:33;94362.25;;;4.10;76.61
35892;BME280;21993;42.672;23.296;2023-01-16T06:38:58;94365.47;;;4.13;76.57
35892;BME280;21993;42.672;23.296;2023-01-16T06:41:24;94364.44;;;4.16;75.98
35892;BME280;21993;42.672;23.296;2023-01-16T06:43:49;94363.19;;;4.09;75.73
35892;BME280;21993;42.672;23.296;2023-01-16T06:46:15;94356.94;;;4.24;76.12
35892;BME280;21993;42.672;23.296;2023-01-16T06:48:40;94346.66;;;4.22;75.93
35892;BME280;21993;42.672;23.296;2023-01-16T06:51:07;94346.56;;;4.24;75.57
35892;BME280;21993;42.672;23.296;2023-01-16T06:53:34;94338.41;;;4.29;75.72
35892;BME280;21993;42.672;23.296;2023-01-16T06:56:00;94345.94;;;4.20;76.19
35892;BME280;21993;42.672;23.296;2023-01-16T06:58:25;94348.31;;;4.23;76.33
35892;BME280;21993;42.672;23.296;2023-01-16T07:00:51;94356.91;;;4.37;76.11
35892;BME280;21993;42.672;23.296;2023-01-16T07:03:17;94352.34;;;4.40;75.22
35892;BME280;21993;42.672;23.296;2023-01-16T07:05:44;94350.34;;;4.44;76.11
35892;BME280;21993;42.672;23.296;2023-01-16T07:08:09;94343.19;;;4.47;75.29
35892;BME280;21993;42.672;23.296;2023-01-16T07:10:35;94349.97;;;4.24;75.80
35892;BME280;21993;42.672;23.296;2023-01-16T07:13:01;94358.72;;;4.23;75.45
35892;BME280;21993;42.672;23.296;2023-01-16T07:15:26;94342.72;;;4.17;76.31
35892;BME280;21993;42.672;23.296;2023-01-16T07:18:14;94345.44;;;4.15;76.41
35892;BME280;21993;42.672;23.296;2023-01-16T07:21:01;94338.88;;;4.10;76.09
35892;BME280;21993;42.672;23.296;2023-01-16T07:23:54;94342.13;;;3.88;77.61
35892;BME280;21993;42.672;23.296;2023-01-16T07:26:22;94348.66;;;3.93;76.79
35892;BME280;21993;42.672;23.296;2023-01-16T07:28:49;94332.97;;;3.95;76.76
35892;BME280;21993;42.672;23.296;2023-01-16T07:31:15;94337.34;;;4.07;76.97
35892;BME280;21993;42.672;23.296;2023-01-16T07:33:41;94333.50;;;4.00;76.85
35892;BME280;21993;42.672;23.296;2023-01-16T07:36:07;94338.47;;;3.78;77.73
35892;BME280;21993;42.672;23.296;2023-01-16T07:38:32;94334.84;;;3.93;77.25
35892;BME280;21993;42.672;23.296;2023-01-16T07:40:57;94329.22;;;3.86;78.28
35892;BME280;21993;42.672;23.296;2023-01-16T07:43:23;94330.69;;;3.90;77.50
35892;BME280;21993;42.672;23.296;2023-01-16T07:45:48;94323.72;;;3.78;77.22
35892;BME280;21993;42.672;23.296;2023-01-16T07:48:26;94320.44;;;3.89;78.21
35892;BME280;21993;42.672;23.296;2023-01-16T07:50:56;94321.84;;;4.06;77.51
35892;BME280;21993;42.672;23.296;2023-01-16T07:53:24;94317.38;;;4.20;76.81
35892;BME280;21993;42.672;23.296;2023-01-16T07:55:51;94297.50;;;4.19;75.76
35892;BME280;21993;42.672;23.296;2023-01-16T07:58:17;94294.00;;;4.20;76.94
35892;BME280;21993;42.672;23.296;2023-01-16T08:00:43;94284.44;;;4.08;76.95
35892;BME280;21993;42.672;23.296;2023-01-16T08:03:09;94276.13;;;4.16;76.95
35892;BME280;21993;42.672;23.296;2023-01-16T08:05:34;94292.88;;;3.99;77.58
35892;BME280;21993;42.672;23.296;2023-01-16T08:08:00;94293.19;;;4.07;76.93
35892;BME280;21993;42.672;23.296;2023-01-16T08:10:25;94306.88;;;4.09;77.26
35892;BME280;21993;42.672;23.296;2023-01-16T08:12:51;94302.09;;;4.16;76.75
35892;BME280;21993;42.672;23.296;2023-01-16T08:15:16;94304.47;;;4.19;77.02
35892;BME280;21993;42.672;23.296;2023-01-16T08:17:41;94302.56;;;4.34;76.67
35892;BME280;21993;42.672;23.296;2023-01-16T08:20:08;94315.13;;;4.40;75.34
35892;BME280;21993;42.672;23.296;2023-01-16T08:22:34;94317.84;;;4.38;75.64
35892;BME280;21993;42.672;23.296;2023-01-16T08:24:59;94315.91;;;4.53;76.26
35892;BME280;21993;42.672;23.296;2023-01-16T08:27:24;94314.72;;;4.46;75.80
35892;BME280;21993;42.672;23.296;2023-01-16T08:29:50;94308.03;;;4.55;74.74
35892;BME280;21993;42.672;23.296;2023-01-16T08:32:15;94300.59;;;4.37;76.05
35892;BME280;21993;42.672;23.296;2023-01-16T08:34:41;94293.06;;;4.45;75.79
35892;BME280;21993;42.672;23.296;2023-01-16T08:37:07;94290.31;;;4.60;75.61
35892;BME280;21993;42.672;23.296;2023-01-16T08:39:38;94283.84;;;4.65;75.41
35892;BME280;21993;42.672;23.296;2023-01-16T08:42:03;94274.28;;;4.66;75.07
35892;BME280;21993;42.672;23.296;2023-01-16T08:44:47;94277.75;;;4.77;74.48
35892;BME280;21993;42.672;23.296;2023-01-16T08:47:31;94271.41;;;4.82;74.18
35892;BME280;21993;42.672;23.296;2023-01-16T08:50:19;94274.69;;;4.72;74.67
35892;BME280;21993;42.672;23.296;2023-01-16T08:53:04;94269.69;;;4.69;74.45
35892;BME280;21993;42.672;23.296;2023-01-16T08:55:30;94279.88;;;4.72;74.43
35892;BME280;21993;42.672;23.296;2023-01-16T08:57:55;94282.84;;;4.79;74.71
35892;BME280;21993;42.672;23.296;2023-01-16T09:00:25;94283.03;;;4.89;74.32
35892;BME280;21993;42.672;23.296;2023-01-16T09:02:51;94269.34;;;4.98;74.95
35892;BME280;21993;42.672;23.296;2023-01-16T09:05:17;94266.22;;;4.82;75.01
35892;BME280;21993;42.672;23.296;2023-01-16T09:07:42;94255.97;;;5.02;74.22
35892;BME280;21993;42.672;23.296;2023-01-16T09:10:09;94249.69;;;4.94;74.10
35892;BME280;21993;42.672;23.296;2023-01-16T09:12:35;94253.25;;;5.04;73.83
35892;BME280;21993;42.672;23.296;2023-01-16T09:15:19;94245.84;;;5.11;74.06
35892;BME280;21993;42.672;23.296;2023-01-16T09:17:44;94240.44;;;5.14;74.21
35892;BME280;21993;42.672;23.296;2023-01-16T09:20:10;94242.22;;;5.24;73.46
35892;BME280;21993;42.672;23.296;2023-01-16T09:22:35;94234.53;;;5.34;73.16
35892;BME280;21993;42.672;23.296;2023-01-16T09:25:01;94228.84;;;5.18;73.80
35892;BME280;21993;42.672;23.296;2023-01-16T09:27:26;94221.66;;;5.32;73.82
35892;BME280;21993;42.672;23.296;2023-01-16T09:29:52;94222.81;;;5.28;73.81
35892;BME280;21993;42.672;23.296;2023-01-16T09:32:18;94211.72;;;5.37;73.77
35892;BME280;21993;42.672;23.296;2023-01-16T09:34:44;94223.19;;;5.46;72.66
35892;BME280;21993;42.672;23.296;2023-01-16T09:37:10;94205.59;;;5.39;73.81
35892;BME280;21993;42.672;23.296;2023-01-16T09:39:36;94215.59;;;5.21;73.04
35892;BME280;21993;42.672;23.296;2023-01-16T09:45:11;94210.38;;;5.09;73.20
35892;BME280;21993;42.672;23.296;2023-01-16T09:47:41;94202.41;;;4.89;73.77
35892;BME280;21993;42.672;23.296;2023-01-16T09:50:17;94197.16;;;5.24;73.00
35892;BME280;21993;42.672;23.296;2023-01-16T09:52:47;94181.78;;;5.43;72.68
35892;BME280;21993;42.672;23.296;2023-01-16T09:58:20;94177.41;;;5.66;71.92
35892;BME280;21993;42.672;23.296;2023-01-16T10:01:08;94178.84;;;5.81;70.72
35892;BME280;21993;42.672;23.296;2023-01-16T10:03:34;94186.75;;;5.80;70.87
35892;BME280;21993;42.672;23.296;2023-01-16T10:14:35;94145.97;;;6.12;70.46
35892;BME280;21993;42.672;23.296;2023-01-16T10:23:28;94132.34;;;6.52;68.86
35892;BME280;21993;42.672;23.296;2023-01-16T10:28:49;94121.50;;;6.36;68.39
35892;BME280;21993;42.672;23.296;2023-01-16T10:31:22;94115.03;;;6.51;67.87
35892;BME280;21993;42.672;23.296;2023-01-16T10:33:57;94101.19;;;6.51;67.95
35892;BME280;21993;42.672;23.296;2023-01-16T10:36:29;94092.03;;;6.56;67.47
35892;BME280;21993;42.672;23.296;2023-01-16T10:38:57;94097.13;;;6.58;68.24
35892;BME280;21993;42.672;23.296;2023-01-16T10:47:09;94091.88;;;6.78;67.08
35892;BME280;21993;42.672;23.296;2023-01-16T10:49:53;94075.19;;;6.81;67.78
35892;BME280;21993;42.672;23.296;2023-01-16T10:52:19;94058.69;;;7.11;66.29
35892;BME280;21993;42.672;23.296;2023-01-16T10:54:44;94055.56;;;7.17;65.77
35892;BME280;21993;42.672;23.296;2023-01-16T10:57:16;94048.56;;;7.18;65.28
35892;BME280;21993;42.672;23.296;2023-01-16T10:59:42;94045.06;;;7.38;65.98
35892;BME280;21993;42.672;23.296;2023-01-16T11:02:39;94044.38;;;7.36;65.83
35892;BME280;21993;42.672;23.296;2023-01-16T11:07:53;94019.16;;;7.75;64.85
35892;BME280;21993;42.672;23.296;2023-01-16T11:10:19;93998.69;;;8.09;63.81
35892;BME280;21993;42.672;23.296;2023-01-16T11:12:44;94007.50;;;8.37;63.83
35892;BME280;21993;42.672;23.296;2023-01-16T11:15:29;94008.97;;;8.69;61.54
35892;BME280;21993;42.672;23.296;2023-01-16T11:18:32;94006.03;;;9.19;60.76
35892;BME280;21993;42.672;23.296;2023-01-16T11:21:14;94004.31;;;9.55;59.87
35892;BME280;21993;42.672;23.296;2023-01-16T11:23:42;94014.72;;;9.92;58.79
35892;BME280;21993;42.672;23.296;2023-01-16T11:26:09;94007.16;;;10.25;57.34
35892;BME280;21993;42.672;23.296;2023-01-16T11:28:36;94005.34;;;10.61;56.99
35892;BME280;21993;42.672;23.296;2023-01-16T11:31:10;93988.63;;;10.88;55.58
35892;BME280;21993;42.672;23.296;2023-01-16T11:33:42;93988.91;;;11.11;54.88
35892;BME280;21993;42.672;23.296;2023-01-16T11:36:09;93976.84;;;11.34;54.17
35892;BME280;21993;42.672;23.296;2023-01-16T11:38:38;93982.97;;;11.43;53.60
35892;BME280;21993;42.672;23.296;2023-01-16T11:41:07;93981.00;;;11.45;53.09
35892;BME280;21993;42.672;23.296;2023-01-16T11:43:34;93970.66;;;11.51;53.30
35892;BME280;21993;42.672;23.296;2023-01-16T11:48:52;93975.63;;;11.54;53.03
35892;BME280;21993;42.672;23.296;2023-01-16T11:51:20;93969.03;;;11.50;52.75
35892;BME280;21993;42.672;23.296;2023-01-16T11:53:49;93952.28;;;11.60;52.81
35892;BME280;21993;42.672;23.296;2023-01-16T12:04:34;93939.59;;;10.96;53.05
35892;BME280;21993;42.672;23.296;2023-01-16T12:09:59;93934.25;;;11.14;53.35
35892;BME280;21993;42.672;23.296;2023-01-16T12:12:39;93925.28;;;10.91;53.99
35892;BME280;21993;42.672;23.296;2023-01-16T12:16:30;93922.56;;;10.75;54.46
35892;BME280;21993;42.672;23.296;2023-01-16T12:21:28;93912.09;;;10.83;54.66
35892;BME280;21993;42.672;23.296;2023-01-16T12:32:56;93894.78;;;10.64;54.60
35892;BME280;21993;42.672;23.296;2023-01-16T12:38:14;93893.81;;;10.65;53.92
35892;BME280;21993;42.672;23.296;2023-01-16T12:41:19;93891.69;;;10.34;55.06
35892;BME280;21993;42.672;23.296;2023-01-16T12:44:11;93880.78;;;10.03;55.67
35892;BME280;21993;42.672;23.296;2023-01-16T12:57:58;93874.97;;;9.38;58.06
35892;BME280;21993;42.672;23.296;2023-01-16T13:00:42;93874.66;;;9.41;57.67
35892;BME280;21993;42.672;23.296;2023-01-16T13:03:18;93866.13;;;9.03;58.75
35892;BME280;21993;42.672;23.296;2023-01-16T13:05:47;93862.19;;;9.17;59.06
35892;BME280;21993;42.672;23.296;2023-01-16T13:08:34;93856.88;;;9.27;58.46
35892;BME280;21993;42.672;23.296;2023-01-16T13:11:08;93838.78;;;9.34;58.05
35892;BME280;21993;42.672;23.296;2023-01-16T13:14:06;93837.91;;;9.15;58.88
35892;BME280;21993;42.672;23.296;2023-01-16T13:16:37;93827.69;;;9.04;59.43
35892;BME280;21993;42.672;23.296;2023-01-16T13:19:15;93841.59;;;9.05;58.87
35892;BME280;21993;42.672;23.296;2023-01-16T13:24:32;93812.56;;;9.16;58.68
35892;BME280;21993;42.672;23.296;2023-01-16T13:27:02;93821.03;;;9.10;59.48
35892;BME280;21993;42.672;23.296;2023-01-16T13:29:33;93824.53;;;9.00;59.88
35892;BME280;21993;42.672;23.296;2023-01-16T13:32:29;93828.91;;;8.82;60.49
35892;BME280;21993;42.672;23.296;2023-01-16T13:35:04;93820.03;;;8.93;59.77
35892;BME280;21993;42.672;23.296;2023-01-16T13:40:22;93815.91;;;8.90;60.45
35892;BME280;21993;42.672;23.296;2023-01-16T13:42:55;93826.53;;;8.89;60.03
35892;BME280;21993;42.672;23.296;2023-01-16T13:45:31;93824.72;;;8.89;59.94
35892;BME280;21993;42.672;23.296;2023-01-16T13:48:14;93810.25;;;8.95;59.96
35892;BME280;21993;42.672;23.296;2023-01-16T13:50:48;93816.19;;;8.69;60.33
35892;BME280;21993;42.672;23.296;2023-01-16T13:53:16;93804.41;;;8.83;60.36
35892;BME280;21993;42.672;23.296;2023-01-16T13:55:42;93809.34;;;8.86;59.97
35892;BME280;21993;42.672;23.296;2023-01-16T13:58:20;93793.41;;;8.97;60.74
35892;BME280;21993;42.672;23.296;2023-01-16T14:00:56;93801.81;;;9.01;60.62
35892;BME280;21993;42.672;23.296;2023-01-16T14:03:24;93793.03;;;8.47;61.32
35892;BME280;21993;42.672;23.296;2023-01-16T14:05:53;93786.34;;;8.62;61.53
35892;BME280;21993;42.672;23.296;2023-01-16T14:13:39;93799.06;;;8.48;62.42
35892;BME280;21993;42.672;23.296;2023-01-16T14:24:05;93814.44;;;8.60;62.27
35892;BME280;21993;42.672;23.296;2023-01-16T14:29:25;93796.81;;;8.62;61.32
35892;BME280;21993;42.672;23.296;2023-01-16T14:32:19;93816.47;;;8.66;61.06
35892;BME280;21993;42.672;23.296;2023-01-16T14:34:55;93805.53;;;8.53;61.86
35892;BME280;21993;42.672;23.296;2023-01-16T14:38:29;93798.47;;;8.36;62.40
35892;BME280;21993;42.672;23.296;2023-01-16T14:40:27;93794.28;;;8.06;62.76
35892;BME280;21993;42.672;23.296;2023-01-16T14:43:17;93789.59;;;8.09;62.69
35892;BME280;21993;42.672;23.296;2023-01-16T14:55:31;93811.16;;;7.65;63.82
35892;BME280;21993;42.672;23.296;2023-01-16T14:57:57;93792.47;;;7.59;64.43
35892;BME280;21993;42.672;23.296;2023-01-16T15:00:24;93790.81;;;7.68;63.95
35892;BME280;21993;42.672;23.296;2023-01-16T15:02:57;93790.63;;;7.79;63.05
35892;BME280;21993;42.672;23.296;2023-01-16T15:05:29;93777.53;;;7.89;63.73
35892;BME280;21993;42.672;23.296;2023-01-16T15:08:17;93778.13;;;7.83;63.12
35892;BME280;21993;42.672;23.296;2023-01-16T15:10:46;93776.50;;;7.82;63.92
35892;BME280;21993;42.672;23.296;2023-01-16T15:13:31;93783.06;;;7.86;63.97
35892;BME280;21993;42.672;23.296;2023-01-16T15:16:21;93794.28;;;7.49;63.80
35892;BME280;21993;42.672;23.296;2023-01-16T15:19:16;93798.81;;;7.38;64.83
35892;BME280;21993;42.672;23.296;2023-01-16T15:22:00;93783.03;;;7.49;64.20
35892;BME280;21993;42.672;23.296;2023-01-16T15:24:25;93774.63;;;7.45;65.13
35892;BME280;21993;42.672;23.296;2023-01-16T15:27:07;93776.41;;;7.54;64.32
35892;BME280;21993;42.672;23.296;2023-01-16T15:30:04;93786.59;;;7.57;64.38
35892;BME280;21993;42.672;23.296;2023-01-16T15:32:57;93798.53;;;7.31;65.00
35892;BME280;21993;42.672;23.296;2023-01-16T15:35:55;93788.13;;;7.21;66.15
35892;BME280;21993;42.672;23.296;2023-01-16T15:38:22;93779.06;;;7.16;65.78